sensor_id;sensor_type;location;lat;lon;timestamp;P1;durP1;ratioP1;P2;durP2;ratioP2
16820;SDS011;8527;49.740;6.604;2023-12-14T00:03:07;11.13;;;5.15;;
16820;SDS011;8527;49.740;6.604;2023-12-14T00:08:06;11.73;;;5.53;;
16820;SDS011;8527;49.740;6.604;2023-12-14T00:13:10;12.40;;;4.93;;
16820;SDS011;8527;49.740;6.604;2023-12-14T00:18:08;13.60;;;5.45;;
16820;SDS011;8527;49.740;6.604;2023-12-14T00:23:07;14.35;;;6.15;;
16820;SDS011;8527;49.740;6.604;2023-12-14T00:28:05;12.48;;;5.68;;
16820;SDS011;8527;49.740;6.604;2023-12-14T00:33:06;14.65;;;5.25;;
16820;SDS011;8527;49.740;6.604;2023-12-14T00:38:10;12.32;;;6.03;;
16820;SDS011;8527;49.740;6.604;2023-12-14T00:43:09;20.42;;;8.23;;
16820;SDS011;8527;49.740;6.604;2023-12-14T00:48:10;16.95;;;8.63;;
16820;SDS011;8527;49.740;6.604;2023-12-14T00:53:08;18.02;;;8.65;;
16820;SDS011;8527;49.740;6.604;2023-12-14T00:58:12;16.77;;;8.27;;
16820;SDS011;8527;49.740;6.604;2023-12-14T01:03:13;19.73;;;9.63;;
16820;SDS011;8527;49.740;6.604;2023-12-14T01:08:11;12.35;;;6.97;;
16820;SDS011;8527;49.740;6.604;2023-12-14T01:13:12;11.38;;;6.53;;
16820;SDS011;8527;49.740;6.604;2023-12-14T01:18:19;16.55;;;7.47;;
16820;SDS011;8527;49.740;6.604;2023-12-14T01:23:17;12.85;;;6.85;;
16820;SDS011;8527;49.740;6.604;2023-12-14T01:28:16;15.63;;;6.72;;
16820;SDS011;8527;49.740;6.604;2023-12-14T01:33:14;12.23;;;6.63;;
16820;SDS011;8527;49.740;6.604;2023-12-14T01:38:15;11.07;;;6.38;;
16820;SDS011;8527;49.740;6.604;2023-12-14T01:43:17;13.80;;;6.40;;
16820;SDS011;8527;49.740;6.604;2023-12-14T01:48:18;13.10;;;6.15;;
16820;SDS011;8527;49.740;6.604;2023-12-14T01:53:20;13.80;;;6.05;;
16820;SDS011;8527;49.740;6.604;2023-12-14T01:58:18;13.82;;;6.28;;
16820;SDS011;8527;49.740;6.604;2023-12-14T02:03:18;14.85;;;5.47;;
16820;SDS011;8527;49.740;6.604;2023-12-14T02:08:16;18.02;;;7.65;;
16820;SDS011;8527;49.740;6.604;2023-12-14T02:13:25;20.35;;;8.15;;
16820;SDS011;8527;49.740;6.604;2023-12-14T02:18:23;14.98;;;7.03;;
16820;SDS011;8527;49.740;6.604;2023-12-14T02:23:25;20.00;;;7.93;;
16820;SDS011;8527;49.740;6.604;2023-12-14T02:28:24;16.75;;;8.02;;
16820;SDS011;8527;49.740;6.604;2023-12-14T02:33:23;19.85;;;8.40;;
16820;SDS011;8527;49.740;6.604;2023-12-14T02:38:28;18.67;;;7.95;;
16820;SDS011;8527;49.740;6.604;2023-12-14T02:43:30;21.40;;;9.00;;
16820;SDS011;8527;49.740;6.604;2023-12-14T02:48:40;18.65;;;8.50;;
16820;SDS011;8527;49.740;6.604;2023-12-14T02:53:42;18.02;;;8.32;;
16820;SDS011;8527;49.740;6.604;2023-12-14T02:58:43;20.75;;;9.48;;
16820;SDS011;8527;49.740;6.604;2023-12-14T03:03:49;18.98;;;8.90;;
16820;SDS011;8527;49.740;6.604;2023-12-14T03:08:50;19.42;;;8.93;;
16820;SDS011;8527;49.740;6.604;2023-12-14T03:13:48;18.25;;;9.20;;
16820;SDS011;8527;49.740;6.604;2023-12-14T03:18:52;18.45;;;9.43;;
16820;SDS011;8527;49.740;6.604;2023-12-14T03:23:54;23.10;;;9.52;;
16820;SDS011;8527;49.740;6.604;2023-12-14T03:28:52;20.60;;;9.52;;
16820;SDS011;8527;49.740;6.604;2023-12-14T03:33:51;21.17;;;9.45;;
16820;SDS011;8527;49.740;6.604;2023-12-14T03:38:55;18.50;;;9.15;;
16820;SDS011;8527;49.740;6.604;2023-12-14T03:43:56;19.48;;;9.65;;
16820;SDS011;8527;49.740;6.604;2023-12-14T03:48:54;22.88;;;8.98;;
16820;SDS011;8527;49.740;6.604;2023-12-14T03:53:55;20.75;;;8.98;;
16820;SDS011;8527;49.740;6.604;2023-12-14T03:58:54;20.88;;;9.43;;
16820;SDS011;8527;49.740;6.604;2023-12-14T04:04:02;18.75;;;8.38;;
16820;SDS011;8527;49.740;6.604;2023-12-14T04:09:12;20.95;;;9.27;;
16820;SDS011;8527;49.740;6.604;2023-12-14T04:14:13;23.75;;;9.05;;
16820;SDS011;8527;49.740;6.604;2023-12-14T04:19:21;15.88;;;8.38;;
16820;SDS011;8527;49.740;6.604;2023-12-14T04:24:31;23.20;;;9.05;;
16820;SDS011;8527;49.740;6.604;2023-12-14T04:29:32;22.30;;;10.05;;
16820;SDS011;8527;49.740;6.604;2023-12-14T04:34:31;24.77;;;10.30;;
16820;SDS011;8527;49.740;6.604;2023-12-14T04:39:32;20.38;;;9.07;;
16820;SDS011;8527;49.740;6.604;2023-12-14T04:44:33;20.58;;;9.45;;
16820;SDS011;8527;49.740;6.604;2023-12-14T04:49:35;23.35;;;9.38;;
16820;SDS011;8527;49.740;6.604;2023-12-14T04:54:36;26.92;;;9.05;;
16820;SDS011;8527;49.740;6.604;2023-12-14T04:59:38;21.15;;;10.07;;
16820;SDS011;8527;49.740;6.604;2023-12-14T05:04:39;17.55;;;8.75;;
16820;SDS011;8527;49.740;6.604;2023-12-14T05:09:42;18.08;;;8.05;;
16820;SDS011;8527;49.740;6.604;2023-12-14T05:14:41;16.20;;;7.53;;
16820;SDS011;8527;49.740;6.604;2023-12-14T05:19:41;18.80;;;8.60;;
16820;SDS011;8527;49.740;6.604;2023-12-14T05:24:47;21.42;;;10.27;;
16820;SDS011;8527;49.740;6.604;2023-12-14T05:29:47;20.67;;;9.88;;
16820;SDS011;8527;49.740;6.604;2023-12-14T05:34:51;17.67;;;8.82;;
16820;SDS011;8527;49.740;6.604;2023-12-14T05:39:53;21.08;;;8.98;;
16820;SDS011;8527;49.740;6.604;2023-12-14T05:44:51;19.70;;;7.88;;
16820;SDS011;8527;49.740;6.604;2023-12-14T05:49:50;17.80;;;8.52;;
16820;SDS011;8527;49.740;6.604;2023-12-14T05:54:48;14.85;;;7.30;;
16820;SDS011;8527;49.740;6.604;2023-12-14T05:59:49;17.05;;;8.00;;
16820;SDS011;8527;49.740;6.604;2023-12-14T06:04:49;17.25;;;7.88;;
16820;SDS011;8527;49.740;6.604;2023-12-14T06:09:48;13.80;;;7.13;;
16820;SDS011;8527;49.740;6.604;2023-12-14T06:14:48;18.67;;;7.38;;
16820;SDS011;8527;49.740;6.604;2023-12-14T06:19:47;17.15;;;7.28;;
16820;SDS011;8527;49.740;6.604;2023-12-14T06:24:48;12.38;;;6.22;;
16820;SDS011;8527;49.740;6.604;2023-12-14T06:29:49;18.13;;;8.27;;
16820;SDS011;8527;49.740;6.604;2023-12-14T06:34:48;17.25;;;8.35;;
16820;SDS011;8527;49.740;6.604;2023-12-14T06:39:54;23.45;;;10.13;;
16820;SDS011;8527;49.740;6.604;2023-12-14T06:44:56;19.38;;;7.97;;
16820;SDS011;8527;49.740;6.604;2023-12-14T06:49:54;13.82;;;6.75;;
16820;SDS011;8527;49.740;6.604;2023-12-14T06:54:53;29.65;;;11.90;;
16820;SDS011;8527;49.740;6.604;2023-12-14T06:59:51;20.98;;;12.00;;
16820;SDS011;8527;49.740;6.604;2023-12-14T07:04:52;42.75;;;19.65;;
16820;SDS011;8527;49.740;6.604;2023-12-14T07:09:51;22.13;;;10.90;;
16820;SDS011;8527;49.740;6.604;2023-12-14T07:14:49;42.85;;;15.00;;
16820;SDS011;8527;49.740;6.604;2023-12-14T07:19:47;17.42;;;7.82;;
16820;SDS011;8527;49.740;6.604;2023-12-14T07:24:48;17.35;;;8.10;;
16820;SDS011;8527;49.740;6.604;2023-12-14T07:29:47;15.25;;;7.07;;
16820;SDS011;8527;49.740;6.604;2023-12-14T07:34:48;14.38;;;7.53;;
16820;SDS011;8527;49.740;6.604;2023-12-14T07:40:01;17.02;;;8.77;;
16820;SDS011;8527;49.740;6.604;2023-12-14T07:45:01;14.93;;;8.48;;
16820;SDS011;8527;49.740;6.604;2023-12-14T07:50:04;14.13;;;7.95;;
16820;SDS011;8527;49.740;6.604;2023-12-14T07:55:06;15.60;;;7.13;;
16820;SDS011;8527;49.740;6.604;2023-12-14T08:00:06;17.92;;;8.50;;
16820;SDS011;8527;49.740;6.604;2023-12-14T08:05:08;13.20;;;6.72;;
16820;SDS011;8527;49.740;6.604;2023-12-14T08:10:09;12.75;;;6.53;;
16820;SDS011;8527;49.740;6.604;2023-12-14T08:15:08;14.43;;;6.78;;
16820;SDS011;8527;49.740;6.604;2023-12-14T08:25:51;18.58;;;7.95;;
16820;SDS011;8527;49.740;6.604;2023-12-14T08:30:52;21.58;;;8.38;;
16820;SDS011;8527;49.740;6.604;2023-12-14T08:35:52;20.65;;;9.68;;
16820;SDS011;8527;49.740;6.604;2023-12-14T08:40:56;18.48;;;8.18;;
16820;SDS011;8527;49.740;6.604;2023-12-14T08:45:54;14.15;;;7.22;;
16820;SDS011;8527;49.740;6.604;2023-12-14T08:50:53;12.32;;;5.93;;
16820;SDS011;8527;49.740;6.604;2023-12-14T08:55:52;13.80;;;6.25;;
16820;SDS011;8527;49.740;6.604;2023-12-14T09:00:53;12.15;;;6.15;;
16820;SDS011;8527;49.740;6.604;2023-12-14T09:05:51;16.67;;;7.60;;
16820;SDS011;8527;49.740;6.604;2023-12-14T09:10:50;17.85;;;7.40;;
16820;SDS011;8527;49.740;6.604;2023-12-14T09:15:49;14.27;;;6.75;;
16820;SDS011;8527;49.740;6.604;2023-12-14T09:20:51;15.18;;;7.07;;
16820;SDS011;8527;49.740;6.604;2023-12-14T09:25:49;17.63;;;8.10;;
16820;SDS011;8527;49.740;6.604;2023-12-14T09:30:48;18.55;;;7.70;;
16820;SDS011;8527;49.740;6.604;2023-12-14T09:35:46;18.88;;;7.38;;
16820;SDS011;8527;49.740;6.604;2023-12-14T09:40:47;21.65;;;9.82;;
16820;SDS011;8527;49.740;6.604;2023-12-14T09:45:48;14.68;;;6.57;;
16820;SDS011;8527;49.740;6.604;2023-12-14T09:50:47;18.25;;;8.57;;
16820;SDS011;8527;49.740;6.604;2023-12-14T09:55:51;16.75;;;7.70;;
16820;SDS011;8527;49.740;6.604;2023-12-14T10:00:49;18.80;;;9.23;;
16820;SDS011;8527;49.740;6.604;2023-12-14T10:05:47;25.38;;;9.68;;
16820;SDS011;8527;49.740;6.604;2023-12-14T10:10:47;20.20;;;9.15;;
16820;SDS011;8527;49.740;6.604;2023-12-14T10:15:50;20.30;;;9.10;;
16820;SDS011;8527;49.740;6.604;2023-12-14T10:20:49;20.20;;;10.02;;
16820;SDS011;8527;49.740;6.604;2023-12-14T10:25:48;14.15;;;6.95;;
16820;SDS011;8527;49.740;6.604;2023-12-14T10:30:46;14.68;;;7.20;;
16820;SDS011;8527;49.740;6.604;2023-12-14T10:35:47;13.20;;;6.00;;
16820;SDS011;8527;49.740;6.604;2023-12-14T10:40:46;14.32;;;6.07;;
16820;SDS011;8527;49.740;6.604;2023-12-14T10:45:48;13.88;;;6.22;;
16820;SDS011;8527;49.740;6.604;2023-12-14T10:50:51;16.00;;;6.47;;
16820;SDS011;8527;49.740;6.604;2023-12-14T10:55:53;13.35;;;5.95;;
16820;SDS011;8527;49.740;6.604;2023-12-14T11:01:03;11.75;;;5.78;;
16820;SDS011;8527;49.740;6.604;2023-12-14T11:06:18;11.82;;;5.07;;
16820;SDS011;8527;49.740;6.604;2023-12-14T11:11:19;11.20;;;5.25;;
16820;SDS011;8527;49.740;6.604;2023-12-14T11:16:19;9.38;;;4.68;;
16820;SDS011;8527;49.740;6.604;2023-12-14T11:21:24;11.77;;;5.00;;
16820;SDS011;8527;49.740;6.604;2023-12-14T11:26:24;12.60;;;5.20;;
16820;SDS011;8527;49.740;6.604;2023-12-14T11:31:24;11.82;;;4.50;;
16820;SDS011;8527;49.740;6.604;2023-12-14T11:36:26;6.93;;;3.67;;
16820;SDS011;8527;49.740;6.604;2023-12-14T11:41:25;10.27;;;4.43;;
16820;SDS011;8527;49.740;6.604;2023-12-14T11:46:24;9.52;;;4.13;;
16820;SDS011;8527;49.740;6.604;2023-12-14T11:51:23;11.60;;;5.13;;
16820;SDS011;8527;49.740;6.604;2023-12-14T11:56:24;8.75;;;4.40;;
16820;SDS011;8527;49.740;6.604;2023-12-14T12:01:24;7.40;;;3.60;;
16820;SDS011;8527;49.740;6.604;2023-12-14T12:06:24;6.20;;;3.25;;
16820;SDS011;8527;49.740;6.604;2023-12-14T12:11:26;4.72;;;2.92;;
16820;SDS011;8527;49.740;6.604;2023-12-14T12:16:24;7.72;;;3.85;;
16820;SDS011;8527;49.740;6.604;2023-12-14T12:21:23;6.57;;;3.45;;
16820;SDS011;8527;49.740;6.604;2023-12-14T12:26:22;5.47;;;2.88;;
16820;SDS011;8527;49.740;6.604;2023-12-14T12:31:23;7.80;;;3.55;;
16820;SDS011;8527;49.740;6.604;2023-12-14T12:36:21;6.07;;;3.10;;
16820;SDS011;8527;49.740;6.604;2023-12-14T12:41:22;7.28;;;3.58;;
16820;SDS011;8527;49.740;6.604;2023-12-14T12:46:27;5.82;;;3.22;;
16820;SDS011;8527;49.740;6.604;2023-12-14T12:51:25;5.70;;;3.03;;
16820;SDS011;8527;49.740;6.604;2023-12-14T12:56:25;5.07;;;2.95;;
16820;SDS011;8527;49.740;6.604;2023-12-14T13:01:23;4.00;;;2.53;;
16820;SDS011;8527;49.740;6.604;2023-12-14T13:06:27;3.17;;;2.05;;
16820;SDS011;8527;49.740;6.604;2023-12-14T13:11:29;3.67;;;2.00;;
16820;SDS011;8527;49.740;6.604;2023-12-14T13:16:30;4.68;;;2.50;;
16820;SDS011;8527;49.740;6.604;2023-12-14T13:21:28;6.60;;;2.55;;
16820;SDS011;8527;49.740;6.604;2023-12-14T13:26:27;6.22;;;2.97;;
16820;SDS011;8527;49.740;6.604;2023-12-14T13:31:25;4.72;;;2.88;;
16820;SDS011;8527;49.740;6.604;2023-12-14T13:36:26;5.00;;;2.85;;
16820;SDS011;8527;49.740;6.604;2023-12-14T13:41:25;8.02;;;3.28;;
16820;SDS011;8527;49.740;6.604;2023-12-14T13:46:26;5.00;;;2.90;;
16820;SDS011;8527;49.740;6.604;2023-12-14T13:51:28;5.55;;;3.40;;
16820;SDS011;8527;49.740;6.604;2023-12-14T13:56:26;5.50;;;2.95;;
16820;SDS011;8527;49.740;6.604;2023-12-14T14:01:25;6.97;;;3.60;;
16820;SDS011;8527;49.740;6.604;2023-12-14T14:06:23;6.50;;;3.20;;
16820;SDS011;8527;49.740;6.604;2023-12-14T14:11:24;6.22;;;3.65;;
16820;SDS011;8527;49.740;6.604;2023-12-14T14:16:22;5.70;;;3.25;;
16820;SDS011;8527;49.740;6.604;2023-12-14T14:21:21;5.38;;;2.75;;
16820;SDS011;8527;49.740;6.604;2023-12-14T14:26:19;6.65;;;3.78;;
16820;SDS011;8527;49.740;6.604;2023-12-14T14:31:20;3.83;;;2.78;;
16820;SDS011;8527;49.740;6.604;2023-12-14T14:36:25;4.57;;;2.70;;
16820;SDS011;8527;49.740;6.604;2023-12-14T14:41:23;4.55;;;2.88;;
16820;SDS011;8527;49.740;6.604;2023-12-14T14:46:24;6.97;;;3.90;;
16820;SDS011;8527;49.740;6.604;2023-12-14T14:51:23;6.45;;;3.80;;
16820;SDS011;8527;49.740;6.604;2023-12-14T14:56:22;5.75;;;3.40;;
16820;SDS011;8527;49.740;6.604;2023-12-14T15:01:20;4.85;;;3.22;;
16820;SDS011;8527;49.740;6.604;2023-12-14T15:06:21;6.43;;;3.90;;
16820;SDS011;8527;49.740;6.604;2023-12-14T15:11:20;5.97;;;3.72;;
16820;SDS011;8527;49.740;6.604;2023-12-14T15:16:18;6.88;;;3.28;;
16820;SDS011;8527;49.740;6.604;2023-12-14T15:21:22;7.47;;;4.13;;
16820;SDS011;8527;49.740;6.604;2023-12-14T15:26:20;6.60;;;3.92;;
16820;SDS011;8527;49.740;6.604;2023-12-14T15:31:19;9.05;;;4.20;;
16820;SDS011;8527;49.740;6.604;2023-12-14T15:36:19;6.53;;;3.50;;
16820;SDS011;8527;49.740;6.604;2023-12-14T15:41:20;4.88;;;3.70;;
16820;SDS011;8527;49.740;6.604;2023-12-14T15:46:19;9.88;;;4.00;;
16820;SDS011;8527;49.740;6.604;2023-12-14T15:51:17;8.65;;;4.00;;
16820;SDS011;8527;49.740;6.604;2023-12-14T15:56:18;8.07;;;3.70;;
16820;SDS011;8527;49.740;6.604;2023-12-14T16:01:20;18.35;;;8.10;;
16820;SDS011;8527;49.740;6.604;2023-12-14T16:06:18;8.93;;;4.15;;
16820;SDS011;8527;49.740;6.604;2023-12-14T16:11:19;8.15;;;4.40;;
16820;SDS011;8527;49.740;6.604;2023-12-14T16:16:17;10.40;;;5.40;;
16820;SDS011;8527;49.740;6.604;2023-12-14T16:21:18;11.80;;;4.75;;
16820;SDS011;8527;49.740;6.604;2023-12-14T16:26:19;9.85;;;4.75;;
16820;SDS011;8527;49.740;6.604;2023-12-14T16:31:17;12.15;;;5.97;;
16820;SDS011;8527;49.740;6.604;2023-12-14T16:36:16;9.43;;;6.18;;
16820;SDS011;8527;49.740;6.604;2023-12-14T16:41:14;12.13;;;5.78;;
16820;SDS011;8527;49.740;6.604;2023-12-14T16:46:19;11.57;;;6.28;;
16820;SDS011;8527;49.740;6.604;2023-12-14T16:51:21;8.63;;;4.90;;
16820;SDS011;8527;49.740;6.604;2023-12-14T16:56:20;7.13;;;4.28;;
16820;SDS011;8527;49.740;6.604;2023-12-14T17:01:28;12.82;;;6.65;;
16820;SDS011;8527;49.740;6.604;2023-12-14T17:06:27;13.02;;;5.90;;
16820;SDS011;8527;49.740;6.604;2023-12-14T17:11:25;10.93;;;5.28;;
16820;SDS011;8527;49.740;6.604;2023-12-14T17:16:23;10.90;;;6.03;;
16820;SDS011;8527;49.740;6.604;2023-12-14T17:21:28;10.52;;;6.38;;
16820;SDS011;8527;49.740;6.604;2023-12-14T17:26:27;11.80;;;7.07;;
16820;SDS011;8527;49.740;6.604;2023-12-14T17:31:25;11.02;;;7.05;;
16820;SDS011;8527;49.740;6.604;2023-12-14T17:36:24;11.40;;;6.13;;
16820;SDS011;8527;49.740;6.604;2023-12-14T17:41:25;11.35;;;6.13;;
16820;SDS011;8527;49.740;6.604;2023-12-14T17:46:24;13.27;;;6.45;;
16820;SDS011;8527;49.740;6.604;2023-12-14T17:51:25;12.80;;;6.15;;
16820;SDS011;8527;49.740;6.604;2023-12-14T17:56:29;7.97;;;5.43;;
16820;SDS011;8527;49.740;6.604;2023-12-14T18:01:28;9.82;;;5.97;;
16820;SDS011;8527;49.740;6.604;2023-12-14T18:06:26;13.05;;;7.03;;
16820;SDS011;8527;49.740;6.604;2023-12-14T18:11:24;17.95;;;8.52;;
16820;SDS011;8527;49.740;6.604;2023-12-14T18:16:25;13.20;;;7.90;;
16820;SDS011;8527;49.740;6.604;2023-12-14T18:21:26;13.88;;;6.72;;
16820;SDS011;8527;49.740;6.604;2023-12-14T18:26:25;9.80;;;6.57;;
16820;SDS011;8527;49.740;6.604;2023-12-14T18:31:26;15.23;;;7.95;;
16820;SDS011;8527;49.740;6.604;2023-12-14T18:36:27;11.40;;;6.35;;
16820;SDS011;8527;49.740;6.604;2023-12-14T18:41:26;6.43;;;4.80;;
16820;SDS011;8527;49.740;6.604;2023-12-14T18:46:27;10.13;;;6.10;;
16820;SDS011;8527;49.740;6.604;2023-12-14T18:51:25;11.32;;;6.03;;
16820;SDS011;8527;49.740;6.604;2023-12-14T18:56:24;12.40;;;6.40;;
16820;SDS011;8527;49.740;6.604;2023-12-14T19:01:22;9.70;;;4.63;;
16820;SDS011;8527;49.740;6.604;2023-12-14T19:06:25;9.40;;;5.68;;
16820;SDS011;8527;49.740;6.604;2023-12-14T19:11:24;21.30;;;10.48;;
16820;SDS011;8527;49.740;6.604;2023-12-14T19:16:26;15.70;;;8.20;;
16820;SDS011;8527;49.740;6.604;2023-12-14T19:21:30;17.77;;;9.05;;
16820;SDS011;8527;49.740;6.604;2023-12-14T19:26:29;16.85;;;9.90;;
16820;SDS011;8527;49.740;6.604;2023-12-14T19:31:27;8.93;;;5.32;;
16820;SDS011;8527;49.740;6.604;2023-12-14T19:36:26;8.65;;;4.93;;
16820;SDS011;8527;49.740;6.604;2023-12-14T19:41:26;6.88;;;4.20;;
16820;SDS011;8527;49.740;6.604;2023-12-14T19:46:25;10.73;;;4.80;;
16820;SDS011;8527;49.740;6.604;2023-12-14T19:51:23;8.07;;;4.68;;
16820;SDS011;8527;49.740;6.604;2023-12-14T19:56:21;17.60;;;7.45;;
16820;SDS011;8527;49.740;6.604;2023-12-14T20:01:23;12.90;;;6.47;;
16820;SDS011;8527;49.740;6.604;2023-12-14T20:11:26;7.65;;;4.13;;
16820;SDS011;8527;49.740;6.604;2023-12-14T20:16:26;9.15;;;4.80;;
16820;SDS011;8527;49.740;6.604;2023-12-14T20:21:25;8.98;;;4.00;;
16820;SDS011;8527;49.740;6.604;2023-12-14T20:26:23;7.75;;;4.03;;
16820;SDS011;8527;49.740;6.604;2023-12-14T20:31:28;7.68;;;4.40;;
16820;SDS011;8527;49.740;6.604;2023-12-14T20:36:28;7.78;;;4.50;;
16820;SDS011;8527;49.740;6.604;2023-12-14T20:41:28;10.80;;;4.55;;
16820;SDS011;8527;49.740;6.604;2023-12-14T20:46:29;5.85;;;4.18;;
16820;SDS011;8527;49.740;6.604;2023-12-14T20:51:28;7.20;;;4.68;;
16820;SDS011;8527;49.740;6.604;2023-12-14T20:56:26;6.25;;;4.20;;
16820;SDS011;8527;49.740;6.604;2023-12-14T21:01:30;9.43;;;4.13;;
16820;SDS011;8527;49.740;6.604;2023-12-14T21:06:30;5.40;;;3.50;;
16820;SDS011;8527;49.740;6.604;2023-12-14T21:11:29;7.35;;;4.00;;
16820;SDS011;8527;49.740;6.604;2023-12-14T21:16:27;7.15;;;4.07;;
16820;SDS011;8527;49.740;6.604;2023-12-14T21:21:29;8.32;;;4.22;;
16820;SDS011;8527;49.740;6.604;2023-12-14T21:26:27;12.40;;;5.90;;
16820;SDS011;8527;49.740;6.604;2023-12-14T21:31:33;16.02;;;7.15;;
16820;SDS011;8527;49.740;6.604;2023-12-14T21:36:31;15.13;;;9.27;;
16820;SDS011;8527;49.740;6.604;2023-12-14T21:41:30;11.85;;;7.55;;
16820;SDS011;8527;49.740;6.604;2023-12-14T21:46:28;10.07;;;5.93;;
16820;SDS011;8527;49.740;6.604;2023-12-14T21:51:31;8.48;;;5.25;;
16820;SDS011;8527;49.740;6.604;2023-12-14T21:56:30;11.25;;;5.43;;
16820;SDS011;8527;49.740;6.604;2023-12-14T22:01:28;22.08;;;8.43;;
16820;SDS011;8527;49.740;6.604;2023-12-14T22:06:32;16.75;;;6.88;;
16820;SDS011;8527;49.740;6.604;2023-12-14T22:11:31;15.25;;;5.50;;
16820;SDS011;8527;49.740;6.604;2023-12-14T22:16:29;9.80;;;4.80;;
16820;SDS011;8527;49.740;6.604;2023-12-14T22:21:27;6.55;;;4.00;;
16820;SDS011;8527;49.740;6.604;2023-12-14T22:26:29;9.52;;;5.10;;
16820;SDS011;8527;49.740;6.604;2023-12-14T22:31:27;17.00;;;5.75;;
16820;SDS011;8527;49.740;6.604;2023-12-14T22:36:25;13.25;;;5.50;;
16820;SDS011;8527;49.740;6.604;2023-12-14T22:41:24;13.18;;;5.40;;
16820;SDS011;8527;49.740;6.604;2023-12-14T22:46:25;19.10;;;6.70;;
16820;SDS011;8527;49.740;6.604;2023-12-14T22:51:24;36.25;;;13.70;;
16820;SDS011;8527;49.740;6.604;2023-12-14T22:56:23;27.50;;;11.82;;
16820;SDS011;8527;49.740;6.604;2023-12-14T23:01:31;17.65;;;8.82;;
16820;SDS011;8527;49.740;6.604;2023-12-14T23:06:30;12.63;;;7.60;;
16820;SDS011;8527;49.740;6.604;2023-12-14T23:11:29;10.32;;;6.13;;
16820;SDS011;8527;49.740;6.604;2023-12-14T23:16:28;17.23;;;7.35;;
16820;SDS011;8527;49.740;6.604;2023-12-14T23:21:29;10.23;;;6.57;;
16820;SDS011;8527;49.740;6.604;2023-12-14T23:26:29;9.85;;;6.05;;
16820;SDS011;8527;49.740;6.604;2023-12-14T23:31:33;10.93;;;5.63;;
16820;SDS011;8527;49.740;6.604;2023-12-14T23:36:31;12.15;;;6.05;;
16820;SDS011;8527;49.740;6.604;2023-12-14T23:41:33;10.43;;;6.35;;
16820;SDS011;8527;49.740;6.604;2023-12-14T23:46:39;11.10;;;6.50;;
16820;SDS011;8527;49.740;6.604;2023-12-14T23:51:38;11.93;;;6.60;;
16820;SDS011;8527;49.740;6.604;2023-12-14T23:56:39;13.85;;;5.85;;
